Observations for Trim Patrick St
| Time | AQI | Temp °C | Hum % | Pres Pa | CO μg/m³ | H₂S μg/m³ | NO μg/m³ | NO₂ μg/m³ | O₃ μg/m³ | SO₂ μg/m³ | PM1 μg/m³ | PM2.5 μg/m³ | PM10 μg/m³ |
|---|---|---|---|---|---|---|---|---|---|---|---|---|---|
| Friday 28 August 2026 | |||||||||||||
| 02:31 | 3 | 16.7 | 88 | 38,460 | 0.14 | 2.52 | 1.25 | 13.72 | 34.62 | 0 | 12.29 | 19.07 | 20.97 |
| 02:30 | 3 | 16.7 | 88 | 38,460 | 0.13 | 2.96 | 1.51 | 14.4 | 33.55 | 0 | 12.29 | 17.7 | 19.47 |
| 02:28 | 3 | 16.7 | 88 | 38,460 | 0.14 | 2.46 | 1.51 | 13.86 | 33.51 | 0 | 10.57 | 17.01 | 18.71 |
| 02:27 | 3 | 16.7 | 88 | 38,460 | 0.14 | 2.07 | 1.56 | 15.74 | 28.12 | 0 | 11.43 | 17.01 | 18.71 |
| 02:26 | 3 | 16.6 | 88 | 38,460 | 0.16 | 0.87 | 1.73 | 12.16 | 36.55 | 0 | 11.43 | 18.37 | 20.21 |
| 02:25 | 3 | 16.7 | 88 | 38,460 | 0.14 | 1.94 | 1.61 | 12.5 | 36.5 | 0 | 12.29 | 19.06 | 20.96 |
| 02:24 | 3 | 16.7 | 88 | 38,460 | 0.14 | 2.8 | 1.71 | 14.51 | 30.56 | 0 | 12.29 | 19.75 | 21.73 |
| 02:22 | 3 | 16.7 | 88 | 38,460 | 0.15 | 0.87 | 2.55 | 12.61 | 35.43 | 0 | 9.71 | 14.96 | 16.45 |
| 02:20 | 3 | 16.7 | 88 | 38,460 | 0.15 | 1.1 | 1.94 | 12.5 | 36.23 | 0 | 11.43 | 17.69 | 19.46 |
| 02:18 | 3 | 16.7 | 88 | 38,460 | 0.14 | 0.56 | 1.5 | 12.27 | 36 | 0 | 11.43 | 17.02 | 18.72 |
| 02:17 | 3 | 16.7 | 88 | 38,460 | 0.15 | 1.03 | 1.43 | 12.28 | 38.65 | 0 | 11.43 | 17.01 | 18.71 |
| 02:16 | 3 | 16.7 | 88 | 38,460 | 0.14 | 0.53 | 1.38 | 12.38 | 37.39 | 0 | 10.57 | 15.65 | 17.21 |
| 02:15 | 3 | 16.7 | 88 | 38,460 | 0.16 | 1.03 | 1.51 | 12.71 | 38.33 | 0 | 10.57 | 15.64 | 17.2 |
| 02:13 | 3 | 16.7 | 88 | 38,460 | 0.16 | 0.58 | 1.66 | 12.38 | 37 | 0 | 11.43 | 18.38 | 20.22 |
| 02:12 | 3 | 16.7 | 88 | 38,460 | 0.15 | 1 | 1.37 | 12.48 | 39.91 | 0 | 13.14 | 19.75 | 21.73 |
| 02:08 | 3 | 16.7 | 88 | 38,460 | 0.15 | 1.81 | 1.64 | 12.27 | 37.42 | 0 | 12.29 | 19.07 | 20.97 |
| 02:07 | 3 | 16.7 | 88 | 38,460 | 0.15 | 2.57 | 1.64 | 13.84 | 34.92 | 0 | 13.14 | 19.07 | 20.97 |
| 02:06 | 3 | 16.7 | 88 | 38,460 | 0.14 | 2.54 | 1.59 | 14.51 | 33.15 | 0 | 12.29 | 17.02 | 18.72 |
| 02:05 | 3 | 16.7 | 88 | 38,460 | 0.15 | 2.78 | 1.55 | 16.77 | 31.28 | 0 | 14.86 | 19.75 | 21.73 |
| 02:04 | 3 | 16.7 | 88 | 38,460 | 0.15 | 1.31 | 1.51 | 13.12 | 35.86 | 0 | 12.29 | 18.38 | 20.22 |